createdAt,value
2018-09-12T00:00:02.189Z,14.80
2018-09-12T00:02:30.953Z,14.80
2018-09-12T00:04:59.762Z,14.70
2018-09-12T00:07:28.568Z,14.70
2018-09-12T00:09:57.334Z,14.70
2018-09-12T00:12:26.080Z,14.70
2018-09-12T00:14:55.093Z,14.60
2018-09-12T00:17:23.976Z,14.60
2018-09-12T00:19:52.793Z,14.50
2018-09-12T00:22:21.524Z,14.50
2018-09-12T00:24:50.251Z,14.50
2018-09-12T00:27:19.035Z,14.50
2018-09-12T00:29:47.828Z,14.50
2018-09-12T00:32:16.580Z,14.50
2018-09-12T00:34:45.338Z,14.50
2018-09-12T00:37:14.118Z,14.50
2018-09-12T00:39:42.855Z,14.50
2018-09-12T00:42:11.609Z,14.50
2018-09-12T00:44:40.332Z,14.50
2018-09-12T00:47:09.104Z,14.50
2018-09-12T00:49:38.089Z,14.50
2018-09-12T00:52:06.877Z,14.40
2018-09-12T00:54:35.628Z,14.30
2018-09-12T00:57:04.397Z,14.30
2018-09-12T00:59:33.204Z,14.20
2018-09-12T01:02:01.974Z,14.20
2018-09-12T01:04:30.740Z,14.20
2018-09-12T01:06:59.509Z,14.20
2018-09-12T01:09:28.272Z,14.20
2018-09-12T01:11:57.037Z,14.10
2018-09-12T01:14:29.968Z,14.10
2018-09-12T01:16:58.893Z,14.10
2018-09-12T01:19:27.973Z,14.10
2018-09-12T01:21:56.707Z,14.00
2018-09-12T01:24:25.483Z,14.00
2018-09-12T01:26:54.317Z,14.00
2018-09-12T01:29:25.168Z,13.90
2018-09-12T01:31:54.188Z,13.90
2018-09-12T01:34:22.916Z,13.90
2018-09-12T01:36:51.817Z,13.90
2018-09-12T01:39:20.579Z,13.90
2018-09-12T01:41:49.620Z,13.90
2018-09-12T01:44:18.352Z,13.90
2018-09-12T01:46:47.113Z,13.90
2018-09-12T01:49:19.345Z,13.80
2018-09-12T01:51:49.809Z,13.80
2018-09-12T01:54:19.098Z,13.80
2018-09-12T01:56:47.857Z,13.80
2018-09-12T01:59:16.594Z,13.80
2018-09-12T02:01:45.908Z,13.80
2018-09-12T02:04:14.693Z,13.80
2018-09-12T02:06:43.547Z,13.90
2018-09-12T02:09:14.095Z,14.00
2018-09-12T02:11:42.877Z,14.00
2018-09-12T02:14:11.676Z,14.00
2018-09-12T02:16:40.404Z,14.00
2018-09-12T02:19:09.134Z,14.00
2018-09-12T02:21:37.981Z,14.10
2018-09-12T02:24:06.748Z,14.10
2018-09-12T02:26:35.509Z,14.10
2018-09-12T02:29:04.264Z,14.10
2018-09-12T02:31:33.224Z,14.10
2018-09-12T02:34:01.959Z,14.10
2018-09-12T02:36:30.722Z,14.10
2018-09-12T02:39:12.128Z,14.20
2018-09-12T02:41:40.875Z,14.20
2018-09-12T02:44:09.630Z,14.30
2018-09-12T02:46:38.368Z,14.30
2018-09-12T02:49:07.187Z,14.40
2018-09-12T02:51:35.933Z,14.40
2018-09-12T02:54:04.764Z,14.40
2018-09-12T02:56:33.484Z,14.40
2018-09-12T02:59:02.227Z,14.40
2018-09-12T03:01:30.978Z,14.40
2018-09-12T03:04:16.272Z,14.40
2018-09-12T03:06:44.999Z,14.40
2018-09-12T03:09:13.785Z,14.40
2018-09-12T03:11:42.557Z,14.30
2018-09-12T03:14:11.299Z,14.20
2018-09-12T03:16:40.153Z,14.20
2018-09-12T03:19:08.912Z,14.10
2018-09-12T03:21:37.905Z,14.00
2018-09-12T03:24:06.796Z,14.00
2018-09-12T03:26:35.656Z,13.90
2018-09-12T03:29:04.408Z,13.90
2018-09-12T03:31:33.161Z,13.90
2018-09-12T03:34:01.906Z,13.80
2018-09-12T03:36:30.649Z,13.80
2018-09-12T03:38:59.387Z,13.80
2018-09-12T03:41:28.245Z,13.80
2018-09-12T03:43:56.963Z,13.70
2018-09-12T03:46:25.737Z,13.70
2018-09-12T03:48:54.510Z,13.70
2018-09-12T03:51:23.249Z,13.60
2018-09-12T03:53:52.004Z,13.60
2018-09-12T03:56:20.753Z,13.50
2018-09-12T03:58:49.697Z,13.50
2018-09-12T04:01:18.449Z,13.50
2018-09-12T04:03:47.185Z,13.40
2018-09-12T04:06:15.987Z,13.40
2018-09-12T04:08:44.737Z,13.40
2018-09-12T04:11:13.466Z,13.30
2018-09-12T04:13:42.295Z,13.30
2018-09-12T04:16:11.111Z,13.20
2018-09-12T04:18:39.857Z,13.20
2018-09-12T04:21:08.641Z,13.10
2018-09-12T04:23:37.412Z,13.10
2018-09-12T04:26:06.289Z,13.10
2018-09-12T04:28:35.057Z,13.10
2018-09-12T04:31:03.802Z,13.00
2018-09-12T04:33:32.556Z,13.00
2018-09-12T04:36:01.418Z,12.90
2018-09-12T04:38:30.180Z,12.90
2018-09-12T04:40:58.930Z,12.90
2018-09-12T04:43:27.738Z,12.90
2018-09-12T04:45:56.786Z,12.90
2018-09-12T04:48:25.604Z,12.90
2018-09-12T04:50:54.653Z,12.80
2018-09-12T04:53:23.421Z,12.80
2018-09-12T04:55:52.225Z,12.70
2018-09-12T04:58:20.976Z,12.70
2018-09-12T05:00:49.745Z,12.70
2018-09-12T05:03:18.497Z,12.70
2018-09-12T05:05:47.309Z,12.70
2018-09-12T05:08:16.094Z,12.70
2018-09-12T05:10:44.829Z,12.70
2018-09-12T05:13:13.605Z,12.70
2018-09-12T05:15:42.649Z,12.70
2018-09-12T05:18:11.421Z,12.70
2018-09-12T05:20:40.186Z,12.70
2018-09-12T05:23:08.934Z,12.70
2018-09-12T05:25:37.795Z,12.70
2018-09-12T05:28:06.582Z,12.70
2018-09-12T05:30:35.340Z,12.80
2018-09-12T05:33:04.077Z,12.80
2018-09-12T05:35:33.041Z,12.90
2018-09-12T05:38:01.792Z,13.00
2018-09-12T05:40:40.082Z,13.00
2018-09-12T05:43:08.869Z,13.00
2018-09-12T05:45:37.655Z,13.10
2018-09-12T05:48:06.597Z,13.20
2018-09-12T05:50:35.406Z,13.40
2018-09-12T05:53:04.188Z,13.60
2018-09-12T05:55:33.053Z,13.80
2018-09-12T05:58:01.701Z,14.00
2018-09-12T06:00:30.510Z,14.10
2018-09-12T06:02:59.511Z,14.20
2018-09-12T06:05:28.785Z,14.30
2018-09-12T06:07:57.636Z,14.40
2018-09-12T06:10:26.389Z,14.60
2018-09-12T06:12:55.153Z,14.70
2018-09-12T06:15:23.936Z,14.80
2018-09-12T06:17:53.016Z,15.00
2018-09-12T06:20:21.768Z,15.10
2018-09-12T06:22:50.596Z,15.20
2018-09-12T06:25:19.430Z,15.30
2018-09-12T06:27:48.204Z,15.40
2018-09-12T06:30:16.952Z,15.50
2018-09-12T06:32:45.930Z,15.60
2018-09-12T06:41:00.482Z,15.70
2018-09-12T06:43:29.277Z,15.90
2018-09-12T06:45:58.021Z,15.90
2018-09-12T06:48:26.786Z,16.00
2018-09-12T06:50:55.769Z,16.20
2018-09-12T06:53:24.533Z,16.40
2018-09-12T06:55:53.277Z,16.50
2018-09-12T06:58:22.304Z,16.50
2018-09-12T07:00:51.111Z,16.70
2018-09-12T07:03:19.843Z,16.80
2018-09-12T07:05:48.654Z,16.80
2018-09-12T07:08:17.479Z,17.00
2018-09-12T07:10:46.253Z,17.00
2018-09-12T07:13:15.026Z,17.20
2018-09-12T07:15:43.775Z,17.30
2018-09-12T07:18:12.524Z,17.40
2018-09-12T07:20:41.294Z,17.50
2018-09-12T07:23:10.157Z,17.60
2018-09-12T07:25:38.932Z,17.70
2018-09-12T07:28:07.698Z,17.80
2018-09-12T07:30:36.541Z,18.00
2018-09-12T07:33:05.280Z,18.00
2018-09-12T07:35:34.036Z,18.20
2018-09-12T07:38:02.900Z,18.40
2018-09-12T07:40:31.630Z,18.50
2018-09-12T07:43:00.378Z,18.70
2018-09-12T07:45:29.150Z,18.80
2018-09-12T07:47:57.939Z,19.00
2018-09-12T07:50:26.692Z,19.10
2018-09-12T07:52:55.641Z,19.20
2018-09-12T07:55:24.379Z,19.30
2018-09-12T07:57:53.120Z,19.40
2018-09-12T08:00:22.029Z,19.60
2018-09-12T08:02:50.729Z,19.70
2018-09-12T08:05:19.480Z,19.70
2018-09-12T08:07:48.288Z,19.90
2018-09-12T08:10:17.032Z,20.00
2018-09-12T08:12:45.785Z,20.10
2018-09-12T08:15:14.620Z,20.20
2018-09-12T08:17:43.358Z,20.30
2018-09-12T08:20:12.122Z,20.40
2018-09-12T08:22:40.873Z,20.50
2018-09-12T08:25:09.645Z,20.60
2018-09-12T08:27:38.421Z,20.80
2018-09-12T08:30:07.648Z,21.00
2018-09-12T08:32:36.401Z,21.00
2018-09-12T08:35:05.227Z,21.10
2018-09-12T08:37:34.009Z,21.30
2018-09-12T08:40:02.894Z,21.40
2018-09-12T08:42:31.729Z,21.50
2018-09-12T08:45:00.442Z,21.50
2018-09-12T08:47:29.209Z,21.50
2018-09-12T08:49:58.141Z,21.60
2018-09-12T08:52:26.903Z,21.70
2018-09-12T08:54:55.682Z,21.90
2018-09-12T08:57:24.446Z,22.00
2018-09-12T08:59:53.433Z,22.10
2018-09-12T09:02:22.188Z,22.40
2018-09-12T09:04:50.920Z,22.40
2018-09-12T09:07:19.658Z,22.50
2018-09-12T09:09:48.416Z,22.60
2018-09-12T09:12:17.164Z,22.70
2018-09-12T09:14:45.905Z,22.90
2018-09-12T09:17:14.749Z,22.90
2018-09-12T09:19:43.509Z,23.10
2018-09-12T09:22:12.232Z,23.20
2018-09-12T09:24:41.012Z,23.40
2018-09-12T09:29:38.232Z,23.50
2018-09-12T09:32:07.338Z,23.60
2018-09-12T09:34:36.094Z,23.60
2018-09-12T09:37:04.917Z,23.70
2018-09-12T09:39:33.653Z,23.80
2018-09-12T09:42:02.390Z,23.90
2018-09-12T09:44:31.139Z,24.00
2018-09-12T09:49:28.313Z,24.40
2018-09-12T09:51:57.105Z,24.50
2018-09-12T09:54:25.872Z,24.60
2018-09-12T09:56:54.816Z,24.70
2018-09-12T09:59:23.579Z,24.90
2018-09-12T10:01:57.632Z,25.10
2018-09-12T10:04:31.549Z,25.10
2018-09-12T10:07:04.567Z,25.20
2018-09-12T10:09:33.945Z,25.30
2018-09-12T10:12:03.665Z,25.50
2018-09-12T10:14:32.512Z,25.60
2018-09-12T10:17:01.361Z,25.60
2018-09-12T10:19:30.121Z,25.60
2018-09-12T10:21:58.872Z,25.70
2018-09-12T10:24:27.633Z,25.70
2018-09-12T10:26:56.385Z,25.70
2018-09-12T10:29:25.173Z,26.00
2018-09-12T10:31:53.932Z,26.20
2018-09-12T10:34:22.722Z,26.20
2018-09-12T10:36:51.489Z,26.20
2018-09-12T10:39:20.234Z,26.30
2018-09-12T10:41:49.048Z,26.40
2018-09-12T10:44:17.869Z,26.70
2018-09-12T10:46:46.648Z,27.00
2018-09-12T10:49:15.429Z,27.30
2018-09-12T10:51:44.220Z,27.70
2018-09-12T10:54:13.084Z,27.70
2018-09-12T10:56:41.961Z,27.60
2018-09-12T10:59:10.815Z,27.60
2018-09-12T11:01:39.577Z,27.80
2018-09-12T11:04:08.483Z,27.70
2018-09-12T11:06:37.301Z,27.70
2018-09-12T11:09:09.437Z,27.80
2018-09-12T11:11:38.220Z,27.80
2018-09-12T11:14:07.091Z,27.50
2018-09-12T11:16:36.037Z,27.20
2018-09-12T11:19:05.857Z,27.30
2018-09-12T11:21:34.648Z,27.30
2018-09-12T11:24:03.510Z,27.40
2018-09-12T11:26:32.284Z,27.60
2018-09-12T11:29:01.047Z,27.60
2018-09-12T11:31:30.149Z,27.70
2018-09-12T11:33:59.898Z,28.10
2018-09-12T11:36:28.742Z,28.40
2018-09-12T11:38:57.499Z,28.50
2018-09-12T11:41:26.268Z,28.50
2018-09-12T11:43:55.227Z,28.60
2018-09-12T11:46:24.102Z,28.80
2018-09-12T11:48:52.894Z,28.80
2018-09-12T11:51:22.303Z,28.90
2018-09-12T11:53:51.140Z,28.80
2018-09-12T11:56:19.960Z,29.10
2018-09-12T11:58:48.718Z,29.10
2018-09-12T12:07:16.568Z,29.20
2018-09-12T12:09:51.226Z,29.20
2018-09-12T12:12:20.125Z,29.10
2018-09-12T12:14:48.909Z,29.10
2018-09-12T12:17:17.642Z,29.10
2018-09-12T12:19:46.508Z,29.10
2018-09-12T12:22:15.368Z,29.30
2018-09-12T12:24:44.176Z,29.50
2018-09-12T12:27:12.942Z,29.50
2018-09-12T12:29:41.698Z,29.50
2018-09-12T12:32:10.600Z,29.30
2018-09-12T12:34:39.348Z,29.40
2018-09-12T12:37:08.116Z,29.40
2018-09-12T12:39:36.929Z,29.40
2018-09-12T12:42:05.945Z,29.50
2018-09-12T12:44:34.737Z,29.50
2018-09-12T12:47:03.507Z,29.40
2018-09-12T12:49:32.265Z,29.50
2018-09-12T12:52:01.196Z,29.50
2018-09-12T12:54:30.112Z,29.70
2018-09-12T12:56:59.735Z,29.60
2018-09-12T12:59:28.473Z,29.40
2018-09-12T13:01:57.257Z,29.30
2018-09-12T13:04:26.018Z,29.40
2018-09-12T13:06:54.789Z,29.50
2018-09-12T13:09:23.609Z,29.60
2018-09-12T13:11:52.385Z,29.80
2018-09-12T13:14:21.137Z,29.80
2018-09-12T13:16:49.926Z,29.80
2018-09-12T13:19:18.697Z,29.90
2018-09-12T13:21:47.636Z,29.90
2018-09-12T13:24:16.225Z,29.90
2018-09-12T13:26:44.989Z,29.90
2018-09-12T13:29:13.760Z,29.90
2018-09-12T13:31:42.505Z,29.90
2018-09-12T13:34:11.392Z,29.80
2018-09-12T13:36:40.162Z,29.70
2018-09-12T13:39:12.987Z,29.80
2018-09-12T13:41:41.866Z,29.70
2018-09-12T13:44:10.749Z,29.80
2018-09-12T13:46:39.735Z,29.90
2018-09-12T13:49:08.541Z,30.00
2018-09-12T13:51:38.004Z,29.90
2018-09-12T13:54:06.829Z,29.90
2018-09-12T13:56:35.617Z,29.90
2018-09-12T13:59:04.438Z,29.90
2018-09-12T14:01:33.280Z,29.90
2018-09-12T14:04:02.145Z,30.00
2018-09-12T14:06:30.930Z,30.00
2018-09-12T14:08:59.751Z,30.00
2018-09-12T14:11:28.525Z,30.10
2018-09-12T14:13:57.362Z,30.10
2018-09-12T14:16:26.169Z,30.10
2018-09-12T14:18:55.081Z,30.20
2018-09-12T14:21:24.214Z,30.30
2018-09-12T14:23:53.041Z,30.10
2018-09-12T14:26:21.782Z,30.00
2018-09-12T14:28:50.528Z,30.00
2018-09-12T14:31:19.643Z,30.00
2018-09-12T14:33:48.482Z,30.10
2018-09-12T14:36:17.221Z,30.10
2018-09-12T14:38:45.988Z,30.00
2018-09-12T14:41:14.744Z,30.00
2018-09-12T14:43:43.689Z,30.00
2018-09-12T14:46:12.742Z,29.70
2018-09-12T14:48:41.785Z,29.60
2018-09-12T14:51:10.774Z,29.50
2018-09-12T14:53:39.541Z,29.50
2018-09-12T14:56:08.502Z,29.60
2018-09-12T14:58:37.285Z,29.60
2018-09-12T15:01:06.096Z,29.70
2018-09-12T15:03:34.881Z,29.70
2018-09-12T15:06:03.665Z,29.50
2018-09-12T15:08:32.429Z,29.40
2018-09-12T15:11:01.298Z,29.40
2018-09-12T15:13:30.100Z,29.40
2018-09-12T15:15:59.050Z,29.40
2018-09-12T15:18:27.825Z,29.40
2018-09-12T15:20:56.661Z,29.40
2018-09-12T15:23:25.456Z,29.40
2018-09-12T15:25:54.388Z,29.40
2018-09-12T15:28:23.149Z,29.40
2018-09-12T15:30:58.090Z,29.40
2018-09-12T15:33:26.861Z,29.40
2018-09-12T15:35:55.626Z,29.20
2018-09-12T15:38:24.404Z,29.10
2018-09-12T15:40:53.189Z,29.00
2018-09-12T15:43:21.953Z,28.80
2018-09-12T15:45:50.713Z,28.70
2018-09-12T15:48:19.492Z,28.50
2018-09-12T15:50:48.259Z,28.40
2018-09-12T15:53:17.074Z,28.40
2018-09-12T15:55:45.969Z,28.30
2018-09-12T15:58:25.121Z,28.30
2018-09-12T16:00:53.921Z,28.30
2018-09-12T16:03:23.613Z,28.40
2018-09-12T16:05:52.364Z,28.40
2018-09-12T16:08:21.125Z,28.40
2018-09-12T16:10:49.870Z,28.40
2018-09-12T16:13:18.645Z,28.30
2018-09-12T16:15:47.424Z,28.20
2018-09-12T16:18:16.201Z,28.10
2018-09-12T16:20:44.967Z,27.90
2018-09-12T16:23:13.793Z,27.80
2018-09-12T16:25:42.527Z,27.60
2018-09-12T16:28:11.316Z,27.60
2018-09-12T16:30:40.127Z,27.50
2018-09-12T16:33:08.975Z,27.50
2018-09-12T16:35:37.709Z,27.50
2018-09-12T16:38:06.759Z,27.50
2018-09-12T16:43:28.540Z,27.60
2018-09-12T16:45:57.304Z,27.50
2018-09-12T16:48:26.179Z,27.40
2018-09-12T16:50:54.985Z,27.30
2018-09-12T16:53:23.968Z,27.10
2018-09-12T16:55:52.841Z,27.00
2018-09-12T16:58:21.680Z,27.00
2018-09-12T17:00:50.940Z,26.90
2018-09-12T17:03:19.961Z,26.70
2018-09-12T17:05:48.732Z,26.60
2018-09-12T17:08:17.570Z,26.40
2018-09-12T17:10:46.343Z,26.20
2018-09-12T17:13:15.181Z,25.90
2018-09-12T17:15:44.319Z,25.70
2018-09-12T17:18:13.096Z,25.50
2018-09-12T17:20:41.925Z,25.30
2018-09-12T17:23:10.684Z,25.20
2018-09-12T17:25:39.776Z,25.00
2018-09-12T17:28:08.623Z,24.80
2018-09-12T17:30:37.493Z,24.70
2018-09-12T17:33:06.283Z,24.50
2018-09-12T17:35:35.140Z,24.30
2018-09-12T17:38:03.945Z,24.20
2018-09-12T17:40:32.700Z,24.10
2018-09-12T17:43:01.473Z,23.90
2018-09-12T17:45:30.465Z,23.80
2018-09-12T17:47:59.362Z,23.70
2018-09-12T17:50:28.154Z,23.60
2018-09-12T17:52:56.912Z,23.50
2018-09-12T17:55:25.949Z,23.40
2018-09-12T17:57:54.770Z,23.30
2018-09-12T18:00:23.595Z,23.20
2018-09-12T18:02:52.609Z,23.10
2018-09-12T18:05:21.658Z,23.00
2018-09-12T18:07:50.442Z,22.90
2018-09-12T18:10:19.262Z,22.80
2018-09-12T18:12:47.955Z,22.70
2018-09-12T18:15:16.703Z,22.60
2018-09-12T18:17:45.645Z,22.60
2018-09-12T18:20:14.448Z,22.40
2018-09-12T18:22:43.471Z,22.40
2018-09-12T18:25:12.282Z,22.30
2018-09-12T18:27:41.157Z,22.30
2018-09-12T18:30:10.654Z,22.30
2018-09-12T18:32:40.039Z,22.20
2018-09-12T18:35:10.000Z,22.20
2018-09-12T18:37:38.814Z,22.10
2018-09-12T18:40:07.687Z,22.20
2018-09-12T18:42:36.481Z,22.10
2018-09-12T18:45:05.454Z,21.90
2018-09-12T18:47:34.201Z,21.80
2018-09-12T18:50:02.987Z,21.70
2018-09-12T18:52:31.772Z,21.60
2018-09-12T18:55:00.552Z,21.50
2018-09-12T18:57:29.307Z,21.40
2018-09-12T18:59:58.200Z,21.40
2018-09-12T19:02:27.449Z,21.30
2018-09-12T19:04:56.226Z,21.20
2018-09-12T19:07:25.001Z,21.10
2018-09-12T19:09:53.864Z,21.00
2018-09-12T19:12:22.652Z,21.10
2018-09-12T19:14:51.416Z,21.00
2018-09-12T19:17:20.125Z,20.90
2018-09-12T19:19:49.097Z,20.80
2018-09-12T19:22:17.880Z,20.80
2018-09-12T19:24:46.669Z,20.70
2018-09-12T19:27:15.421Z,20.70
2018-09-12T19:29:44.571Z,20.80
2018-09-12T19:32:13.353Z,20.90
2018-09-12T19:34:42.089Z,21.10
2018-09-12T19:37:10.873Z,21.10
2018-09-12T19:39:39.652Z,21.20
2018-09-12T19:42:08.445Z,21.30
2018-09-12T19:44:37.214Z,21.40
2018-09-12T19:47:05.996Z,21.30
2018-09-12T19:49:35.125Z,21.30
2018-09-12T19:52:03.869Z,21.20
2018-09-12T19:54:32.648Z,21.10
2018-09-12T19:57:01.406Z,21.00
2018-09-12T19:59:30.173Z,20.90
2018-09-12T20:01:58.981Z,20.90
2018-09-12T20:04:27.757Z,20.80
2018-09-12T20:06:56.561Z,20.80
2018-09-12T20:09:25.560Z,20.80
2018-09-12T20:11:54.346Z,20.90
2018-09-12T20:14:23.153Z,20.90
2018-09-12T20:16:51.893Z,21.00
2018-09-12T20:19:20.929Z,21.20
2018-09-12T20:21:49.718Z,21.10
2018-09-12T20:24:18.475Z,21.40
2018-09-12T20:26:47.672Z,21.60
2018-09-12T20:29:16.749Z,21.90
2018-09-12T20:31:45.508Z,22.10
2018-09-12T20:34:14.497Z,22.20
2018-09-12T20:36:43.257Z,22.10
2018-09-12T20:39:12.564Z,22.10
2018-09-12T20:41:41.344Z,21.90
2018-09-12T20:44:10.153Z,21.80
2018-09-12T20:46:38.901Z,21.80
2018-09-12T20:49:07.745Z,21.80
2018-09-12T20:51:36.525Z,21.70
2018-09-12T20:54:05.334Z,21.70
2018-09-12T20:56:34.116Z,21.60
2018-09-12T20:59:02.877Z,21.40
2018-09-12T21:01:31.692Z,21.30
2018-09-12T21:04:00.453Z,21.10
2018-09-12T21:06:29.222Z,21.00
2018-09-12T21:08:58.041Z,20.90
2018-09-12T21:11:26.806Z,20.90
2018-09-12T21:13:55.573Z,20.80
2018-09-12T21:16:24.335Z,20.80
2018-09-12T21:18:53.077Z,20.70
2018-09-12T21:21:21.853Z,20.60
2018-09-12T21:23:50.775Z,20.50
2018-09-12T21:26:19.508Z,20.50
2018-09-12T21:28:48.261Z,20.50
2018-09-12T21:31:17.123Z,20.40
2018-09-12T21:33:46.236Z,20.40
2018-09-12T21:36:14.972Z,20.30
2018-09-12T21:38:43.718Z,20.30
2018-09-12T21:41:12.550Z,20.30
2018-09-12T21:43:41.408Z,20.20
2018-09-12T21:46:10.154Z,20.10
2018-09-12T21:48:39.021Z,20.00
2018-09-12T21:51:07.785Z,19.90
2018-09-12T21:53:36.770Z,19.80
2018-09-12T21:56:05.562Z,19.70
2018-09-12T21:58:34.317Z,19.70
2018-09-12T22:01:03.112Z,19.70
2018-09-12T22:03:32.092Z,19.70
2018-09-12T22:06:00.870Z,19.70
2018-09-12T22:08:29.642Z,19.70
2018-09-12T22:10:58.371Z,19.70
2018-09-12T22:13:27.301Z,19.70
2018-09-12T22:15:56.104Z,19.60
2018-09-12T22:21:17.802Z,19.40
2018-09-12T22:23:46.561Z,19.20
2018-09-12T22:26:15.340Z,19.10
2018-09-12T22:28:44.088Z,19.00
2018-09-12T22:31:12.846Z,18.90
2018-09-12T22:33:41.578Z,18.90
2018-09-12T22:36:10.448Z,18.90
2018-09-12T22:38:39.229Z,18.90
2018-09-12T22:41:08.073Z,18.70
2018-09-12T22:43:36.843Z,18.70
2018-09-12T22:46:05.733Z,18.60
2018-09-12T22:48:34.542Z,18.50
2018-09-12T22:51:03.328Z,18.50
2018-09-12T22:53:32.057Z,18.50
2018-09-12T22:56:00.943Z,18.40
2018-09-12T22:58:29.984Z,18.40
2018-09-12T23:00:58.775Z,18.30
2018-09-12T23:03:27.565Z,18.30
2018-09-12T23:05:56.295Z,18.40
2018-09-12T23:08:25.069Z,18.30
2018-09-12T23:10:53.881Z,18.30
2018-09-12T23:13:22.653Z,18.30
2018-09-12T23:15:51.399Z,18.20
2018-09-12T23:18:20.188Z,18.20
2018-09-12T23:20:49.057Z,18.10
2018-09-12T23:23:17.816Z,18.00
2018-09-12T23:25:46.596Z,18.00
2018-09-12T23:28:15.405Z,17.90
2018-09-12T23:30:44.272Z,18.00
2018-09-12T23:33:13.017Z,18.00
2018-09-12T23:35:48.652Z,17.90
2018-09-12T23:38:17.437Z,17.90
2018-09-12T23:40:46.260Z,17.80
2018-09-12T23:43:15.030Z,17.70
2018-09-12T23:45:43.834Z,17.70
2018-09-12T23:48:12.555Z,17.60
2018-09-12T23:50:41.510Z,17.60
2018-09-12T23:53:10.301Z,17.50
2018-09-12T23:55:39.042Z,17.60
2018-09-12T23:58:07.800Z,17.60
